Time;durP1;ratioP1;P1;durP2;ratioP2;P2;SDS_P1;SDS_P2;PMS_P1;PMS_P2;Temp;Humidity;BMP_temperature;BMP_pressure;BME280_temperature;BME280_humidity;BME280_pressure;Samples;Min_cycle;Max_cycle;Signal;HPM_P1;HPM_P2
2022/05/23 00:01:33;;;;;;;4.97;2.97;;;17.90;99.90;;;;;;4988736;28;20197;-71
2022/05/23 00:03:59;;;;;;;4.73;2.80;;;17.90;99.90;;;;;;4989305;28;20197;-71
2022/05/23 00:06:26;;;;;;;5.30;2.60;;;18.00;99.90;;;;;;4986022;28;20308;-70
2022/05/23 00:08:53;;;;;;;4.53;2.70;;;18.00;99.90;;;;;;4989469;28;20203;-72
2022/05/23 00:11:20;;;;;;;5.93;2.60;;;18.10;99.90;;;;;;4987360;28;20205;-72
2022/05/23 00:13:48;;;;;;;3.33;2.40;;;18.00;99.90;;;;;;4988796;28;20218;-71
2022/05/23 00:16:25;;;;;;;3.77;2.40;;;18.00;99.90;;;;;;4983310;28;20248;-72
2022/05/23 00:18:52;;;;;;;3.60;2.40;;;18.00;99.90;;;;;;4990286;28;20227;-71
2022/05/23 00:21:19;;;;;;;3.23;2.37;;;18.00;99.90;;;;;;4987219;28;20204;-73
2022/05/23 00:23:46;;;;;;;3.77;2.33;;;18.00;99.90;;;;;;4986780;28;20296;-71
2022/05/23 00:26:16;;;;;;;4.63;2.80;;;18.00;99.90;;;;;;4987910;28;20220;-70
2022/05/23 00:28:43;;;;;;;2.73;2.30;;;18.00;99.90;;;;;;4988769;28;20196;-68
2022/05/23 00:31:11;;;;;;;3.63;2.70;;;18.00;99.90;;;;;;4990420;28;20571;-71
2022/05/23 00:36:31;;;;;;;2.77;2.40;;;18.30;99.90;;;;;;4987825;28;20772;-72
2022/05/23 00:38:58;;;;;;;3.10;2.80;;;18.30;99.90;;;;;;4990058;28;20247;-73
2022/05/23 00:44:18;;;;;;;3.20;2.10;;;18.40;99.90;;;;;;4984239;28;20205;-72
2022/05/23 00:46:56;;;;;;;4.23;2.67;;;18.30;99.90;;;;;;4987884;28;20220;-71
2022/05/23 00:49:43;;;;;;;5.40;2.77;;;18.20;99.90;;;;;;4987703;28;20196;-71
2022/05/23 00:52:16;;;;;;;3.10;2.63;;;18.30;99.90;;;;;;4982656;28;20220;-71
2022/05/23 00:54:46;;;;;;;4.17;2.60;;;18.30;99.90;;;;;;4988565;28;20728;-70
2022/05/23 00:57:18;;;;;;;3.97;2.43;;;18.30;99.90;;;;;;4987788;28;20216;-71
2022/05/23 00:59:45;;;;;;;5.10;2.40;;;18.20;99.90;;;;;;4988069;28;20201;-70
2022/05/23 01:02:12;;;;;;;3.13;2.10;;;18.40;99.90;;;;;;4987090;28;20220;-71
2022/05/23 01:04:40;;;;;;;3.00;2.30;;;18.30;99.90;;;;;;4987267;28;20575;-71
2022/05/23 01:07:08;;;;;;;3.37;2.80;;;18.30;99.90;;;;;;4983803;28;20233;-70
2022/05/23 01:09:35;;;;;;;3.30;2.27;;;18.20;99.90;;;;;;4983509;28;20197;-71
2022/05/23 01:12:03;;;;;;;3.00;2.20;;;18.20;99.90;;;;;;4980865;28;20747;-71
2022/05/23 01:14:50;;;;;;;3.47;2.20;;;18.20;99.90;;;;;;4983177;28;20198;-70
2022/05/23 01:17:18;;;;;;;2.53;2.30;;;18.30;99.90;;;;;;4985502;28;20231;-72
2022/05/23 01:19:44;;;;;;;6.33;2.27;;;18.20;99.90;;;;;;4981743;28;20194;-73
2022/05/23 01:22:32;;;;;;;3.07;2.37;;;18.20;99.90;;;;;;4985279;28;20209;-71
2022/05/23 01:25:17;;;;;;;3.63;2.27;;;18.10;99.90;;;;;;4985279;28;20197;-71
2022/05/23 01:27:45;;;;;;;4.13;2.40;;;18.10;99.90;;;;;;4987472;28;20231;-70
2022/05/23 01:30:12;;;;;;;3.23;2.40;;;18.20;99.90;;;;;;4987660;28;20201;-69
2022/05/23 01:32:40;;;;;;;3.37;2.30;;;18.10;99.90;;;;;;4987398;28;20225;-71
2022/05/23 01:35:08;;;;;;;3.27;2.23;;;17.90;99.90;;;;;;4988027;28;20228;-70
2022/05/23 01:37:35;;;;;;;3.43;2.20;;;17.80;99.90;;;;;;4983513;28;20217;-71
2022/05/23 01:40:02;;;;;;;2.10;1.90;;;17.80;99.90;;;;;;4986859;28;20200;-72
2022/05/23 01:42:29;;;;;;;3.77;2.10;;;17.60;99.90;;;;;;4986326;28;20227;-72
2022/05/23 01:44:56;;;;;;;3.67;2.37;;;17.50;99.90;;;;;;4987388;28;20213;-71
2022/05/23 01:47:23;;;;;;;5.20;2.60;;;17.50;99.90;;;;;;4983784;28;20220;-71
2022/05/23 01:49:49;;;;;;;4.47;2.53;;;17.50;99.90;;;;;;4987617;28;20228;-72
2022/05/23 01:52:16;;;;;;;2.93;2.10;;;17.40;99.90;;;;;;4988950;28;20229;-71
2022/05/23 01:54:43;;;;;;;2.10;1.90;;;17.40;99.90;;;;;;4984575;28;20204;-70
2022/05/23 01:57:11;;;;;;;3.10;2.07;;;17.30;99.90;;;;;;4988487;28;20712;-72
2022/05/23 02:02:24;;;;;;;4.23;2.20;;;17.20;99.90;;;;;;4987962;28;20622;-71
2022/05/23 02:04:54;;;;;;;3.17;2.37;;;17.10;99.90;;;;;;4985710;28;20200;-71
2022/05/23 02:07:21;;;;;;;4.63;2.50;;;17.10;99.90;;;;;;4988679;28;20222;-71
2022/05/23 02:09:48;;;;;;;5.30;2.10;;;17.20;99.90;;;;;;4990023;28;20235;-71
2022/05/23 02:12:17;;;;;;;5.47;2.20;;;17.10;99.90;;;;;;4990570;28;20298;-71
2022/05/23 02:14:49;;;;;;;3.70;2.27;;;17.10;99.90;;;;;;4984455;28;20580;-72
2022/05/23 02:17:16;;;;;;;3.17;2.30;;;17.10;99.90;;;;;;4988587;28;20731;-71
2022/05/23 02:19:43;;;;;;;3.03;2.10;;;17.20;99.90;;;;;;4986708;28;20298;-69
2022/05/23 02:22:10;;;;;;;6.87;3.03;;;17.00;99.90;;;;;;4987887;28;20201;-71
2022/05/23 02:24:37;;;;;;;4.97;2.57;;;16.80;99.90;;;;;;4987181;28;20211;-71
2022/05/23 02:27:04;;;;;;;2.20;2.00;;;16.70;99.90;;;;;;4984591;28;20235;-70
2022/05/23 02:29:30;;;;;;;3.83;2.33;;;16.80;99.90;;;;;;4991778;28;20209;-70
2022/05/23 02:31:57;;;;;;;4.73;2.40;;;17.00;99.90;;;;;;4987578;28;21505;-71
2022/05/23 02:34:24;;;;;;;2.97;2.20;;;16.80;99.90;;;;;;4986909;28;20201;-71
2022/05/23 02:36:51;;;;;;;5.13;2.43;;;16.70;99.90;;;;;;4987439;28;20209;-73
2022/05/23 02:39:17;;;;;;;5.57;2.33;;;16.80;99.90;;;;;;4991962;28;20665;-71
2022/05/23 02:41:44;;;;;;;3.07;2.33;;;16.90;99.90;;;;;;4988900;28;20673;-70
2022/05/23 02:44:11;;;;;;;5.00;2.37;;;16.90;99.90;;;;;;4990834;28;20212;-73
2022/05/23 02:46:38;;;;;;;3.00;2.27;;;17.10;99.90;;;;;;4989840;28;20291;-69
2022/05/23 02:49:08;;;;;;;2.77;2.10;;;17.20;99.90;;;;;;4991376;28;20236;-71
2022/05/23 02:51:35;;;;;;;3.10;2.13;;;17.30;99.90;;;;;;4988267;28;20626;-73
2022/05/23 02:54:02;;;;;;;2.40;2.20;;;17.40;99.90;;;;;;4990956;28;20221;-71
2022/05/23 02:56:29;;;;;;;3.57;2.30;;;17.40;99.90;;;;;;4992061;28;20216;-71
2022/05/23 02:58:56;;;;;;;2.90;2.00;;;17.40;99.90;;;;;;4996113;28;20193;-72
2022/05/23 03:01:23;;;;;;;5.03;2.43;;;17.30;99.90;;;;;;4992737;28;20213;-71
2022/05/23 03:03:50;;;;;;;2.90;2.10;;;17.30;99.90;;;;;;4990991;28;20558;-73
2022/05/23 03:06:16;;;;;;;3.93;2.30;;;17.40;99.90;;;;;;4989328;28;20621;-71
2022/05/23 03:08:44;;;;;;;8.00;2.50;;;17.40;99.90;;;;;;4991011;28;20209;-69
2022/05/23 03:11:11;;;;;;;4.37;2.40;;;17.50;99.90;;;;;;4989568;28;20668;-71
2022/05/23 03:13:38;;;;;;;6.87;2.50;;;17.60;99.90;;;;;;4990137;28;20217;-72
2022/05/23 03:16:13;;;;;;;3.53;2.23;;;17.60;99.90;;;;;;4986765;28;20209;-72
2022/05/23 03:18:39;;;;;;;2.87;2.10;;;17.60;99.90;;;;;;4989805;28;20237;-71
2022/05/23 03:21:08;;;;;;;4.47;2.43;;;17.60;99.90;;;;;;4988471;28;20200;-71
2022/05/23 03:29:12;;;;;;;5.93;2.43;;;17.80;99.90;;;;;;4989732;28;20196;-71
2022/05/23 03:31:39;;;;;;;2.93;2.10;;;18.00;99.90;;;;;;4988036;28;20209;-71
2022/05/23 03:34:05;;;;;;;2.17;1.90;;;17.90;99.90;;;;;;4986645;28;20220;-71
2022/05/23 03:36:32;;;;;;;4.10;2.37;;;17.80;99.90;;;;;;4988950;28;20602;-71
2022/05/23 03:39:00;;;;;;;4.37;2.30;;;17.80;99.90;;;;;;4988867;28;20246;-71
2022/05/23 03:41:26;;;;;;;4.00;2.70;;;17.80;99.90;;;;;;4985280;28;20205;-72
2022/05/23 03:43:53;;;;;;;3.33;2.30;;;17.90;99.90;;;;;;4987031;28;20357;-71
2022/05/23 03:46:21;;;;;;;3.50;2.30;;;17.80;99.90;;;;;;4988468;28;20230;-71
2022/05/23 03:48:48;;;;;;;4.30;2.30;;;17.80;99.90;;;;;;4988488;28;20748;-73
2022/05/23 03:51:15;;;;;;;2.47;2.20;;;17.80;99.90;;;;;;4991068;28;20208;-71
2022/05/23 03:53:41;;;;;;;2.70;2.20;;;17.80;99.90;;;;;;4986662;28;20639;-71
2022/05/23 03:56:08;;;;;;;2.80;2.20;;;17.70;99.90;;;;;;4989344;28;20224;-72
2022/05/23 03:58:35;;;;;;;3.57;2.10;;;17.70;99.90;;;;;;4989025;28;20441;-71
2022/05/23 04:01:10;;;;;;;4.13;2.50;;;17.70;99.90;;;;;;4976262;28;20193;-72
2022/05/23 04:03:38;;;;;;;3.37;2.50;;;17.70;99.90;;;;;;4990217;28;20200;-71
2022/05/23 04:06:05;;;;;;;3.83;2.50;;;17.70;99.90;;;;;;4981695;28;20216;-72
2022/05/23 04:08:31;;;;;;;4.70;2.83;;;17.80;99.90;;;;;;4985549;28;20197;-74
2022/05/23 04:10:59;;;;;;;4.43;2.50;;;17.90;99.90;;;;;;4981849;28;20209;-71
2022/05/23 04:13:26;;;;;;;5.07;2.37;;;18.00;99.90;;;;;;4989575;28;20220;-71
2022/05/23 04:15:53;;;;;;;3.20;2.77;;;17.90;99.90;;;;;;4989377;28;20216;-71
2022/05/23 04:18:19;;;;;;;5.77;2.90;;;17.80;99.90;;;;;;4988836;28;20200;-73
2022/05/23 04:20:46;;;;;;;3.77;3.07;;;17.70;99.90;;;;;;4985715;28;20580;-72
2022/05/23 04:23:13;;;;;;;5.53;2.70;;;17.70;99.90;;;;;;4986560;28;20197;-72
2022/05/23 04:25:41;;;;;;;4.33;3.07;;;17.70;99.90;;;;;;4987270;28;20235;-71
2022/05/23 04:28:09;;;;;;;4.57;3.00;;;17.70;99.90;;;;;;4985816;28;20224;-72
2022/05/23 04:30:35;;;;;;;6.53;3.10;;;17.70;99.90;;;;;;4987825;28;20202;-73
2022/05/23 04:35:54;;;;;;;5.63;2.77;;;17.70;99.90;;;;;;4981428;28;20272;-70
2022/05/23 04:38:20;;;;;;;5.00;2.83;;;17.80;99.90;;;;;;4988279;28;20205;-74
2022/05/23 04:40:47;;;;;;;6.70;2.80;;;17.80;99.90;;;;;;4990939;28;20248;-72
2022/05/23 04:43:14;;;;;;;9.43;3.10;;;17.80;99.90;;;;;;4988606;28;20216;-71
2022/05/23 04:45:42;;;;;;;6.43;3.30;;;17.80;99.90;;;;;;4984951;28;20198;-73
2022/05/23 04:50:54;;;;;;;4.60;3.10;;;17.90;99.90;;;;;;4986071;28;20201;-73
2022/05/23 04:53:21;;;;;;;6.97;3.30;;;17.90;99.90;;;;;;4987577;28;20224;-74
2022/05/23 04:55:48;;;;;;;4.47;3.20;;;18.10;99.90;;;;;;4986477;28;20197;-70
2022/05/23 04:58:14;;;;;;;7.13;3.27;;;18.10;99.90;;;;;;4987419;28;20205;-73
2022/05/23 05:00:42;;;;;;;6.00;3.50;;;18.10;99.90;;;;;;4988519;28;20207;-75
2022/05/23 05:03:16;;;;;;;9.23;3.27;;;18.10;99.90;;;;;;4986283;28;20374;-74
2022/05/23 05:05:44;;;;;;;6.57;3.50;;;18.00;99.90;;;;;;4985588;28;20201;-72
2022/05/23 05:08:10;;;;;;;4.93;3.30;;;17.90;99.90;;;;;;4988075;28;20201;-72
2022/05/23 05:10:37;;;;;;;8.80;3.63;;;17.90;99.90;;;;;;4982529;28;20205;-74
2022/05/23 05:13:04;;;;;;;5.03;3.50;;;17.90;99.90;;;;;;4983141;28;20701;-73
2022/05/23 05:15:30;;;;;;;9.07;3.93;;;17.80;99.90;;;;;;4985867;28;20200;-73
2022/05/23 05:17:57;;;;;;;4.73;3.87;;;17.90;99.90;;;;;;4978734;28;20254;-72
2022/05/23 05:20:24;;;;;;;4.90;3.47;;;17.90;99.90;;;;;;4983293;28;20194;-74
2022/05/23 05:22:51;;;;;;;6.20;3.73;;;17.80;99.90;;;;;;4989178;28;20197;-74
2022/05/23 05:25:19;;;;;;;6.10;4.20;;;17.70;99.90;;;;;;4987164;28;20192;-74
2022/05/23 05:27:47;;;;;;;5.80;3.50;;;17.60;99.90;;;;;;4987113;28;20221;-74
2022/05/23 05:30:19;;;;;;;5.17;4.00;;;17.60;99.90;;;;;;4985762;28;20188;-76
2022/05/23 05:33:01;;;;;;;7.10;3.57;;;17.60;99.90;;;;;;4983241;28;20192;-75
2022/05/23 05:35:58;;;;;;;4.97;3.53;;;17.60;99.90;;;;;;4979429;28;20197;-73
2022/05/23 05:38:36;;;;;;;8.60;4.27;;;17.40;99.90;;;;;;4979447;28;20220;-73
2022/05/23 05:41:09;;;;;;;8.33;4.30;;;17.10;99.90;;;;;;4987477;28;20706;-74
2022/05/23 05:43:42;;;;;;;6.73;4.27;;;16.80;99.90;;;;;;4986396;28;20196;-75
2022/05/23 05:46:15;;;;;;;7.40;5.07;;;16.50;99.90;;;;;;4979189;28;20223;-71
2022/05/23 05:48:47;;;;;;;9.17;4.60;;;16.10;99.90;;;;;;4981679;28;20207;-74
2022/05/23 05:51:18;;;;;;;7.93;4.80;;;15.80;99.90;;;;;;4987706;28;20677;-73
2022/05/23 05:53:45;;;;;;;6.97;4.80;;;15.70;99.90;;;;;;4981282;28;20221;-72
2022/05/23 05:56:12;;;;;;;6.50;4.57;;;15.60;99.90;;;;;;4987016;28;20223;-75
2022/05/23 05:58:39;;;;;;;9.10;5.27;;;15.60;99.90;;;;;;4984339;28;20196;-72
2022/05/23 06:01:06;;;;;;;7.00;4.40;;;15.60;99.90;;;;;;4989535;28;20196;-74
2022/05/23 06:03:34;;;;;;;7.60;4.77;;;15.70;99.90;;;;;;4976741;28;20208;-76
2022/05/23 06:11:32;;;;;;;8.40;5.33;;;16.00;99.90;;;;;;4982236;28;20205;-74
2022/05/23 06:14:02;;;;;;;9.70;5.60;;;16.20;99.90;;;;;;4993381;28;20648;-73
2022/05/23 06:16:31;;;;;;;8.77;5.00;;;16.40;99.90;;;;;;4991345;28;20688;-74
2022/05/23 06:18:58;;;;;;;7.57;4.77;;;16.70;99.90;;;;;;4987304;28;21239;-72
2022/05/23 06:21:27;;;;;;;9.37;4.40;;;17.00;99.90;;;;;;4990073;28;20608;-73
2022/05/23 06:23:54;;;;;;;8.27;4.50;;;17.30;99.90;;;;;;4983593;28;20211;-75
2022/05/23 06:26:23;;;;;;;6.90;4.57;;;17.60;99.90;;;;;;4984153;28;20231;-72
2022/05/23 06:28:50;;;;;;;7.47;4.37;;;17.90;99.90;;;;;;4980933;28;20200;-73
2022/05/23 06:31:19;;;;;;;7.13;4.33;;;18.00;99.90;;;;;;4980769;28;20665;-74
2022/05/23 06:33:45;;;;;;;6.27;3.80;;;18.10;99.90;;;;;;4989977;28;20239;-75
2022/05/23 06:36:13;;;;;;;6.53;4.07;;;18.30;99.90;;;;;;4982522;28;20212;-76
2022/05/23 06:38:41;;;;;;;7.90;3.53;;;18.50;99.90;;;;;;4985027;28;20284;-74
2022/05/23 06:41:10;;;;;;;6.43;3.97;;;18.90;99.90;;;;;;4982263;28;20197;-73
2022/05/23 06:43:38;;;;;;;5.30;3.73;;;19.60;99.90;;;;;;4992050;28;20212;-73
2022/05/23 06:46:06;;;;;;;5.43;4.00;;;20.10;99.90;;;;;;4985493;28;20216;-73
2022/05/23 06:48:34;;;;;;;6.85;3.80;;;20.50;99.90;;;;;;4983353;28;20621;-71
2022/05/23 06:51:02;;;;;;;6.22;4.00;;;20.70;99.90;;;;;;4986335;28;20296;-72
2022/05/23 06:53:29;;;;;;;6.93;4.25;;;20.80;99.90;;;;;;4985411;28;20673;-73
2022/05/23 06:55:57;;;;;;;7.15;4.10;;;21.00;99.90;;;;;;4988578;28;20225;-70
2022/05/23 06:58:24;;;;;;;7.90;4.07;;;21.10;99.90;;;;;;4987618;28;20673;-72
2022/05/23 07:00:52;;;;;;;7.40;4.43;;;21.20;99.90;;;;;;4982082;28;20189;-71
2022/05/23 07:03:20;;;;;;;7.20;4.05;;;21.10;99.90;;;;;;4989150;28;20279;-71
2022/05/23 07:14:05;;;;;;;7.65;3.80;;;21.80;99.90;;;;;;4981239;28;20217;-72
2022/05/23 07:16:33;;;;;;;6.45;3.78;;;22.10;99.90;;;;;;4978696;28;20224;-71
2022/05/23 07:19:00;;;;;;;7.55;3.67;;;22.10;99.90;;;;;;4989045;28;20209;-71
2022/05/23 07:21:26;;;;;;;8.30;3.88;;;22.20;99.90;;;;;;4983748;28;20252;-71
2022/05/23 07:23:54;;;;;;;7.85;3.97;;;22.50;99.90;;;;;;4988438;28;20711;-70
2022/05/23 07:26:21;;;;;;;6.50;3.75;;;22.90;99.90;;;;;;4983677;28;20270;-73
2022/05/23 07:28:49;;;;;;;9.48;4.20;;;23.50;99.90;;;;;;4982285;28;20640;-71
2022/05/23 07:31:17;;;;;;;6.88;3.80;;;23.90;99.90;;;;;;4976419;28;20212;-72
2022/05/23 07:33:45;;;;;;;6.63;3.80;;;24.00;99.90;;;;;;4982144;28;20609;-72
2022/05/23 07:36:13;;;;;;;5.03;3.78;;;23.60;99.90;;;;;;4992052;28;20751;-72
2022/05/23 07:38:40;;;;;;;8.13;3.40;;;23.70;99.90;;;;;;4983554;28;20205;-69
2022/05/23 07:41:09;;;;;;;4.40;3.83;;;24.00;99.90;;;;;;4983995;28;20201;-73
2022/05/23 07:43:39;;;;;;;8.00;3.90;;;24.20;99.90;;;;;;4986664;28;20211;-70
2022/05/23 07:46:09;;;;;;;5.28;3.53;;;24.30;99.90;;;;;;4974745;28;20293;-72
2022/05/23 07:48:47;;;;;;;7.75;4.00;;;24.60;99.90;;;;;;4979359;28;20201;-74
2022/05/23 07:51:17;;;;;;;6.70;4.28;;;24.50;99.90;;;;;;4980476;28;20193;-69
2022/05/23 08:02:01;;;;;;;5.43;3.42;;;23.90;99.90;;;;;;4983427;28;20287;-72
2022/05/23 08:04:28;;;;;;;4.72;3.22;;;24.20;99.90;;;;;;4983705;28;20204;-72
2022/05/23 08:06:55;;;;;;;4.15;3.75;;;24.40;99.90;;;;;;4979939;28;20213;-72
2022/05/23 08:09:22;;;;;;;4.88;3.08;;;24.80;99.90;;;;;;4987222;28;20684;-72
2022/05/23 08:11:53;;;;;;;5.40;3.65;;;24.60;99.90;;;;;;4983808;28;20209;-71
2022/05/23 08:14:21;;;;;;;7.03;3.95;;;24.40;99.90;;;;;;4981131;28;20222;-72
2022/05/23 08:16:48;;;;;;;6.85;3.50;;;24.10;99.90;;;;;;4983040;28;20220;-72
2022/05/23 08:19:15;;;;;;;10.45;4.03;;;24.20;99.90;;;;;;4980214;28;20204;-74
2022/05/23 08:21:47;;;;;;;6.50;3.97;;;24.50;99.90;;;;;;4983966;28;20247;-70
2022/05/23 08:24:14;;;;;;;8.82;4.28;;;24.60;99.90;;;;;;4982295;28;20193;-73
2022/05/23 08:26:42;;;;;;;8.25;4.18;;;24.60;99.90;;;;;;4982506;28;20270;-70
2022/05/23 08:29:10;;;;;;;7.43;4.07;;;24.70;99.90;;;;;;4984452;28;20197;-72
2022/05/23 08:31:44;;;;;;;6.80;3.92;;;24.90;99.90;;;;;;4990269;28;20204;-72
2022/05/23 08:34:11;;;;;;;6.43;4.43;;;25.40;99.90;;;;;;4986205;28;20231;-72
2022/05/23 08:36:38;;;;;;;6.68;3.83;;;25.30;99.90;;;;;;4979143;28;20218;-72
2022/05/23 08:39:05;;;;;;;7.35;4.10;;;25.60;99.90;;;;;;4989559;28;20193;-69
2022/05/23 08:41:41;;;;;;;8.02;4.90;;;25.50;99.90;;;;;;4983724;28;20197;-72
2022/05/23 08:44:39;;;;;;;8.75;4.32;;;25.70;99.90;;;;;;4983292;28;20200;-72
2022/05/23 08:47:34;;;;;;;6.97;4.88;;;25.60;99.90;;;;;;4947516;28;20685;-73
2022/05/23 08:50:14;;;;;;;8.02;4.50;;;25.60;99.90;;;;;;4987493;28;20201;-73
2022/05/23 08:52:51;;;;;;;10.77;4.38;;;25.60;99.90;;;;;;4983255;28;20200;-73
2022/05/23 08:55:21;;;;;;;8.98;4.35;;;25.60;99.90;;;;;;4977642;28;20219;-72
2022/05/23 08:58:05;;;;;;;7.88;3.60;;;25.60;99.90;;;;;;4987558;28;20248;-73
2022/05/23 09:00:42;;;;;;;7.65;4.40;;;25.50;99.90;;;;;;4986841;28;20196;-74
2022/05/23 09:03:28;;;;;;;5.15;4.38;;;25.50;99.90;;;;;;4979313;28;20212;-74
2022/05/23 09:06:10;;;;;;;5.80;4.00;;;25.50;99.90;;;;;;4986197;28;20217;-74
2022/05/23 09:09:06;;;;;;;11.05;4.47;;;25.50;99.90;;;;;;4983385;28;20192;-73
2022/05/23 09:11:44;;;;;;;6.78;4.57;;;25.40;99.90;;;;;;4979369;28;20653;-72
2022/05/23 09:14:16;;;;;;;7.10;4.18;;;25.20;99.90;;;;;;4981353;28;20221;-73
2022/05/23 09:16:52;;;;;;;7.60;4.50;;;25.20;99.90;;;;;;4985557;28;20303;-73
2022/05/23 09:19:39;;;;;;;7.38;4.00;;;25.20;99.90;;;;;;4986753;28;20196;-73
2022/05/23 09:22:14;;;;;;;7.07;4.88;;;25.20;99.90;;;;;;4988866;28;20200;-72
2022/05/23 09:24:51;;;;;;;7.55;4.38;;;25.20;99.90;;;;;;4985639;28;20613;-71
2022/05/23 09:27:37;;;;;;;12.05;4.80;;;25.20;99.90;;;;;;4984437;28;20231;-73
2022/05/23 09:30:16;;;;;;;5.50;4.15;;;25.30;99.90;;;;;;4985294;28;20669;-74
2022/05/23 09:33:05;;;;;;;6.05;4.43;;;25.40;99.90;;;;;;4984065;28;20201;-73
2022/05/23 09:35:50;;;;;;;8.32;5.00;;;25.40;99.90;;;;;;4988581;28;20217;-74
2022/05/23 09:38:19;;;;;;;7.70;5.47;;;25.50;99.90;;;;;;4978503;28;20204;-73
2022/05/23 09:40:46;;;;;;;7.32;4.30;;;25.50;99.90;;;;;;4984598;28;20215;-73
2022/05/23 09:49:21;;;;;;;8.25;4.50;;;25.50;99.90;;;;;;4984930;28;20244;-75
2022/05/23 09:51:54;;;;;;;6.43;3.70;;;25.60;99.90;;;;;;4988335;28;20204;-74
2022/05/23 09:54:29;;;;;;;5.97;3.40;;;25.80;99.90;;;;;;4987601;28;20712;-74
2022/05/23 09:56:58;;;;;;;7.15;3.60;;;26.00;99.90;;;;;;4982684;28;20246;-73
2022/05/23 09:59:36;;;;;;;6.35;3.70;;;26.00;99.90;;;;;;4983611;28;20212;-75
2022/05/23 10:02:16;;;;;;;7.28;3.30;;;25.80;99.90;;;;;;4971153;28;20202;-75
2022/05/23 10:04:45;;;;;;;5.88;3.10;;;25.80;99.90;;;;;;4987813;28;20208;-74
2022/05/23 10:07:38;;;;;;;5.75;3.40;;;25.90;99.90;;;;;;4987451;28;20228;-73
2022/05/23 10:10:18;;;;;;;4.25;2.65;;;26.10;99.90;;;;;;4985633;28;20201;-72
2022/05/23 10:12:47;;;;;;;3.65;2.50;;;26.30;99.90;;;;;;4989910;28;20200;-74
2022/05/23 10:15:28;;;;;;;5.30;3.17;;;26.40;99.90;;;;;;4988638;28;20213;-73
2022/05/23 10:18:04;;;;;;;5.47;3.28;;;26.60;99.90;;;;;;4985671;28;21415;-72
2022/05/23 10:20:43;;;;;;;4.07;3.17;;;26.80;99.90;;;;;;4978920;28;20193;-74
2022/05/23 10:23:21;;;;;;;7.20;3.30;;;26.90;99.90;;;;;;4989386;28;20197;-74
2022/05/23 10:26:18;;;;;;;6.95;3.33;;;27.10;99.90;;;;;;4981442;28;20205;-73
2022/05/23 10:28:56;;;;;;;5.13;3.80;;;27.40;99.90;;;;;;4983296;28;20201;-72
2022/05/23 10:31:42;;;;;;;6.85;3.67;;;27.40;99.90;;;;;;4976990;28;20201;-74
2022/05/23 10:34:38;;;;;;;5.25;3.30;;;27.30;99.90;;;;;;4977058;28;20189;-75
2022/05/23 10:37:27;;;;;;;5.57;3.42;;;27.30;99.90;;;;;;4974441;28;20224;-73
2022/05/23 10:43:12;;;;;;;5.30;2.95;;;27.40;99.90;;;;;;4986398;28;20201;-74
2022/05/23 10:45:59;;;;;;;6.70;3.20;;;27.20;99.90;;;;;;4978089;28;20197;-74
2022/05/23 10:48:54;;;;;;;7.03;3.63;;;27.30;99.90;;;;;;4984482;28;20630;-73
2022/05/23 10:51:36;;;;;;;4.00;3.00;;;27.10;99.90;;;;;;4989101;28;20219;-74
2022/05/23 10:54:12;;;;;;;5.38;3.42;;;27.10;99.90;;;;;;4985084;28;20193;-73
2022/05/23 10:57:07;;;;;;;3.75;3.03;;;27.20;99.90;;;;;;4986931;28;20227;-71
2022/05/23 10:59:51;;;;;;;5.57;3.35;;;27.40;99.90;;;;;;4933640;28;20206;-73
2022/05/23 11:02:45;;;;;;;6.45;3.38;;;27.80;99.90;;;;;;4983447;28;20204;-76
2022/05/23 11:05:22;;;;;;;7.78;3.80;;;28.40;99.90;;;;;;4986813;28;20702;-74
2022/05/23 11:08:00;;;;;;;5.20;4.20;;;28.90;99.90;;;;;;4986586;28;20212;-76
2022/05/23 11:10:29;;;;;;;6.20;3.78;;;28.80;99.90;;;;;;4979704;28;20228;-75
2022/05/23 11:13:14;;;;;;;6.72;3.80;;;28.70;99.90;;;;;;4988985;28;20255;-72
2022/05/23 11:16:27;;;;;;;4.47;3.50;;;28.60;99.90;;;;;;4989475;28;20220;-73
2022/05/23 11:18:59;;;;;;;6.05;4.10;;;28.40;99.90;;;;;;4981553;28;20213;-73
2022/05/23 11:21:53;;;;;;;7.70;3.65;;;28.40;99.90;;;;;;4987562;28;20230;-74
2022/05/23 11:24:35;;;;;;;4.43;3.85;;;28.30;99.90;;;;;;4984014;28;20208;-73
2022/05/23 11:35:52;;;;;;;7.57;3.70;;;27.40;99.90;;;;;;4982024;28;20216;-73
2022/05/23 11:38:20;;;;;;;7.90;3.83;;;27.60;99.90;;;;;;4986884;28;20285;-73
2022/05/23 11:41:00;;;;;;;5.90;3.70;;;27.70;99.90;;;;;;4979952;28;20575;-73
2022/05/23 11:43:28;;;;;;;5.43;3.55;;;27.80;99.90;;;;;;4983387;28;20197;-72
2022/05/23 11:46:02;;;;;;;5.68;3.53;;;28.10;99.90;;;;;;4984056;28;20645;-73
2022/05/23 11:48:39;;;;;;;7.13;3.53;;;28.20;99.90;;;;;;4986125;28;20196;-73
2022/05/23 11:51:11;;;;;;;4.95;3.80;;;28.20;99.90;;;;;;4986321;28;20250;-72
2022/05/23 11:53:43;;;;;;;5.50;4.10;;;28.30;99.90;;;;;;4985088;28;20680;-74
2022/05/23 11:56:31;;;;;;;4.13;3.25;;;28.30;99.90;;;;;;4977680;28;20292;-74
2022/05/23 11:58:59;;;;;;;4.38;3.33;;;28.20;99.90;;;;;;4984797;28;20189;-74
2022/05/23 12:01:29;;;;;;;6.30;3.55;;;28.40;99.90;;;;;;4983557;28;20255;-73
2022/05/23 12:03:57;;;;;;;6.18;3.25;;;28.60;99.90;;;;;;4985924;28;20553;-71
2022/05/23 12:06:24;;;;;;;9.65;4.25;;;28.80;99.90;;;;;;4983517;28;20466;-73
2022/05/23 12:09:02;;;;;;;5.65;3.60;;;28.90;99.90;;;;;;4985367;28;20201;-74
2022/05/23 12:11:35;;;;;;;6.00;3.95;;;29.00;99.90;;;;;;4989091;28;20201;-74
2022/05/23 12:14:24;;;;;;;5.18;3.78;;;29.00;99.90;;;;;;4987797;28;20204;-73
2022/05/23 12:17:09;;;;;;;6.50;3.83;;;29.10;99.90;;;;;;4986332;28;20479;-74
2022/05/23 12:19:38;;;;;;;5.68;3.40;;;29.10;99.90;;;;;;4988801;28;20243;-72
2022/05/23 12:22:20;;;;;;;6.70;3.97;;;29.10;99.90;;;;;;4986776;28;20688;-74
2022/05/23 12:25:21;;;;;;;5.85;3.63;;;29.00;99.90;;;;;;4987683;28;20196;-74
2022/05/23 12:27:51;;;;;;;5.78;3.88;;;28.70;99.90;;;;;;4992706;28;20229;-74
2022/05/23 12:30:17;;;;;;;8.27;4.45;;;28.60;99.90;;;;;;4984497;28;20575;-75
2022/05/23 12:32:55;;;;;;;7.35;4.80;;;28.50;99.90;;;;;;4978811;28;20645;-74
2022/05/23 12:35:40;;;;;;;10.57;4.53;;;28.50;99.90;;;;;;4987741;28;20232;-73
2022/05/23 12:38:31;;;;;;;6.85;4.18;;;28.60;99.90;;;;;;4980740;28;20200;-73
2022/05/23 12:41:12;;;;;;;10.23;4.32;;;28.40;99.90;;;;;;4983216;28;20197;-74
2022/05/23 12:44:07;;;;;;;7.90;4.30;;;28.40;99.90;;;;;;4988172;28;20201;-73
2022/05/23 12:47:04;;;;;;;7.80;3.83;;;28.50;99.90;;;;;;4981827;28;20642;-73
2022/05/23 12:49:40;;;;;;;6.80;4.07;;;28.30;99.90;;;;;;4987006;28;20197;-74
2022/05/23 12:52:20;;;;;;;5.97;4.10;;;28.20;99.90;;;;;;4985166;28;20211;-74
2022/05/23 12:54:52;;;;;;;8.13;4.90;;;28.20;99.90;;;;;;4984831;28;20208;-73
2022/05/23 12:57:34;;;;;;;5.82;4.07;;;28.30;99.90;;;;;;4994648;28;20592;-75
2022/05/23 13:00:27;;;;;;;8.27;4.60;;;28.40;99.90;;;;;;4981061;28;20342;-76
2022/05/23 13:03:15;;;;;;;7.85;4.55;;;28.30;99.90;;;;;;4989578;28;20193;-75
2022/05/23 13:05:46;;;;;;;7.80;4.80;;;28.30;99.90;;;;;;4986668;28;20211;-73
2022/05/23 13:08:19;;;;;;;6.68;4.10;;;28.30;99.90;;;;;;4988621;28;20201;-74
2022/05/23 13:10:57;;;;;;;5.28;4.03;;;28.20;99.90;;;;;;4986113;28;20196;-72
2022/05/23 13:13:43;;;;;;;9.68;4.15;;;28.10;99.90;;;;;;4983577;28;20201;-74
2022/05/23 13:16:14;;;;;;;6.65;4.32;;;27.80;99.90;;;;;;4982926;28;20220;-71
2022/05/23 13:24:48;;;;;;;6.68;4.40;;;27.20;99.90;;;;;;4977516;28;20196;-73
2022/05/23 13:27:06;;;;;;;10.45;3.88;;;27.20;99.90;;;;;;4977916;28;20224;-74
2022/05/23 13:29:35;;;;;;;6.70;4.35;;;27.20;99.90;;;;;;4983797;28;20254;-73
2022/05/23 13:32:10;;;;;;;7.72;4.10;;;26.90;99.90;;;;;;4987489;28;20201;-74
2022/05/23 13:34:40;;;;;;;6.53;5.07;;;27.00;99.90;;;;;;4992022;28;20262;-75
2022/05/23 13:37:07;;;;;;;7.60;4.03;;;27.20;99.90;;;;;;4987349;28;20213;-75
2022/05/23 13:39:43;;;;;;;4.47;3.65;;;27.60;99.90;;;;;;4986448;28;20692;-75
2022/05/23 13:42:18;;;;;;;6.78;4.10;;;28.10;99.90;;;;;;4987266;28;20199;-76
2022/05/23 13:44:48;;;;;;;6.10;3.72;;;28.30;99.90;;;;;;4987476;28;20201;-73
2022/05/23 13:47:25;;;;;;;6.03;4.25;;;28.60;99.90;;;;;;4984433;28;20220;-74
2022/05/23 13:49:55;;;;;;;7.05;4.55;;;28.90;99.90;;;;;;4985388;28;20196;-75
2022/05/23 13:52:29;;;;;;;7.22;4.15;;;28.90;99.90;;;;;;4984642;28;20255;-75
2022/05/23 13:55:06;;;;;;;6.03;4.13;;;28.90;99.90;;;;;;4977641;28;20285;-75
2022/05/23 13:57:43;;;;;;;5.72;4.05;;;29.10;99.90;;;;;;4986621;28;20216;-76
2022/05/23 14:00:23;;;;;;;7.10;4.28;;;29.20;99.90;;;;;;4982062;28;20662;-72
2022/05/23 14:03:34;;;;;;;9.23;4.00;;;29.00;99.90;;;;;;4980279;28;20914;-75
2022/05/23 14:06:05;;;;;;;8.98;4.40;;;29.00;99.90;;;;;;4986685;28;20225;-75
2022/05/23 14:08:40;;;;;;;5.47;3.90;;;29.20;99.90;;;;;;4989652;28;20208;-75
2022/05/23 14:11:19;;;;;;;8.63;4.38;;;29.30;99.90;;;;;;4985470;28;20196;-75
2022/05/23 14:14:14;;;;;;;5.70;4.22;;;29.50;99.90;;;;;;4980225;28;20215;-75
2022/05/23 14:17:09;;;;;;;5.50;4.00;;;29.60;99.90;;;;;;4973053;28;20229;-74
2022/05/23 14:19:50;;;;;;;8.98;4.10;;;29.50;99.90;;;;;;4966999;28;20203;-72